Woodbury, Indiana
Current Conditions -  °F | °C
As of 1:34 AM on Wednesday 26 Nov 2014 (Local Time) from KMQJ Reporting Station
Overcast Overcast  
Wind Chill: -6°   Ceiling: 1400
Heat Index: -3°   Visibility: 10mi
Dew Point: -8°   Wind: 5mph
Humidity: 69%   Direction: 10°N
Pressure: 30.16"   Gusts: NA
Location:  39.9249°N, 85.9217°W
Report Text: KMQJ 260634Z AUTO 01004KT 10SM OVC014 M03/M08 A3016 RMK AO1
Loading
Personal Weather Stations






























Interactive Weather Map New forecast layout! Learn more

10-Day Weather Forecast

Advertisements
Track Severe Weather on mobile